sensor_id;sensor_type;location;lat;lon;timestamp;P1;durP1;ratioP1;P2;durP2;ratioP2
71869;SDS011;59739;47.696;11.746;2023-10-19T15:03:53;6.78;;;2.88;;
71869;SDS011;59739;47.696;11.746;2023-10-19T15:06:19;5.75;;;2.58;;
71869;SDS011;59739;47.696;11.746;2023-10-19T15:08:45;4.43;;;3.13;;
71869;SDS011;59739;47.696;11.746;2023-10-19T15:11:15;5.10;;;2.70;;
71869;SDS011;59739;47.696;11.746;2023-10-19T15:13:43;4.30;;;2.80;;
71869;SDS011;59739;47.696;11.746;2023-10-19T15:16:10;5.75;;;2.80;;
71869;SDS011;59739;47.696;11.746;2023-10-19T15:18:37;4.22;;;2.45;;
71869;SDS011;59739;47.696;11.746;2023-10-19T15:21:10;4.03;;;2.33;;
71869;SDS011;59739;47.696;11.746;2023-10-19T15:23:39;4.97;;;2.78;;
71869;SDS011;59739;47.696;11.746;2023-10-19T15:26:08;6.03;;;2.92;;
71869;SDS011;59739;47.696;11.746;2023-10-19T15:28:34;6.00;;;3.30;;
71869;SDS011;59739;47.696;11.746;2023-10-19T15:31:00;5.30;;;3.20;;
71869;SDS011;59739;47.696;11.746;2023-10-19T15:33:26;5.40;;;3.80;;
71869;SDS011;59739;47.696;11.746;2023-10-19T15:35:54;5.55;;;3.72;;
71869;SDS011;59739;47.696;11.746;2023-10-19T15:38:21;5.03;;;3.42;;
71869;SDS011;59739;47.696;11.746;2023-10-19T15:40:51;5.97;;;4.05;;
71869;SDS011;59739;47.696;11.746;2023-10-19T15:43:17;4.35;;;3.65;;
71869;SDS011;59739;47.696;11.746;2023-10-19T15:45:43;6.13;;;4.10;;
71869;SDS011;59739;47.696;11.746;2023-10-19T15:48:10;6.85;;;4.30;;
71869;SDS011;59739;47.696;11.746;2023-10-19T15:50:38;6.28;;;4.28;;
71869;SDS011;59739;47.696;11.746;2023-10-19T15:53:06;5.35;;;3.50;;
71869;SDS011;59739;47.696;11.746;2023-10-19T15:55:32;6.80;;;4.40;;
71869;SDS011;59739;47.696;11.746;2023-10-19T15:57:59;4.15;;;3.63;;
71869;SDS011;59739;47.696;11.746;2023-10-19T16:00:25;5.88;;;3.88;;
71869;SDS011;59739;47.696;11.746;2023-10-19T16:02:53;7.00;;;4.15;;
71869;SDS011;59739;47.696;11.746;2023-10-19T16:05:19;6.38;;;3.95;;
71869;SDS011;59739;47.696;11.746;2023-10-19T16:07:45;4.82;;;3.33;;
71869;SDS011;59739;47.696;11.746;2023-10-19T16:10:12;5.05;;;3.88;;
71869;SDS011;59739;47.696;11.746;2023-10-19T16:12:40;5.75;;;3.67;;
71869;SDS011;59739;47.696;11.746;2023-10-19T16:15:10;5.53;;;3.78;;
71869;SDS011;59739;47.696;11.746;2023-10-19T16:17:41;6.78;;;3.55;;
71869;SDS011;59739;47.696;11.746;2023-10-19T16:20:14;5.78;;;4.15;;
71869;SDS011;59739;47.696;11.746;2023-10-19T16:22:41;5.57;;;3.97;;
71869;SDS011;59739;47.696;11.746;2023-10-19T16:25:07;8.23;;;3.63;;
71869;SDS011;59739;47.696;11.746;2023-10-19T16:27:35;6.60;;;3.90;;
71869;SDS011;59739;47.696;11.746;2023-10-19T16:30:01;3.63;;;3.15;;
71869;SDS011;59739;47.696;11.746;2023-10-19T16:32:29;6.72;;;3.90;;
71869;SDS011;59739;47.696;11.746;2023-10-19T16:35:00;5.87;;;3.93;;
71869;SDS011;59739;47.696;11.746;2023-10-19T16:37:28;6.20;;;4.55;;
71869;SDS011;59739;47.696;11.746;2023-10-19T16:39:58;6.05;;;4.50;;
71869;SDS011;59739;47.696;11.746;2023-10-19T16:42:25;6.85;;;4.72;;
71869;SDS011;59739;47.696;11.746;2023-10-19T16:44:52;6.22;;;4.70;;
71869;SDS011;59739;47.696;11.746;2023-10-19T16:47:18;6.03;;;4.38;;
71869;SDS011;59739;47.696;11.746;2023-10-19T16:49:47;9.00;;;4.75;;
71869;SDS011;59739;47.696;11.746;2023-10-19T16:52:16;34.58;;;21.10;;
71869;SDS011;59739;47.696;11.746;2023-10-19T16:54:42;17.42;;;12.05;;
71869;SDS011;59739;47.696;11.746;2023-10-19T16:57:08;10.40;;;6.65;;
71869;SDS011;59739;47.696;11.746;2023-10-19T16:59:34;7.20;;;4.80;;
71869;SDS011;59739;47.696;11.746;2023-10-19T17:02:00;5.25;;;4.22;;
71869;SDS011;59739;47.696;11.746;2023-10-19T17:04:26;5.10;;;3.75;;
71869;SDS011;59739;47.696;11.746;2023-10-19T17:06:53;7.13;;;4.10;;
71869;SDS011;59739;47.696;11.746;2023-10-19T17:09:19;6.50;;;5.40;;
71869;SDS011;59739;47.696;11.746;2023-10-19T17:11:47;6.80;;;4.40;;
71869;SDS011;59739;47.696;11.746;2023-10-19T17:14:17;8.18;;;4.78;;
71869;SDS011;59739;47.696;11.746;2023-10-19T17:16:44;7.13;;;4.57;;
71869;SDS011;59739;47.696;11.746;2023-10-19T17:19:10;8.43;;;6.03;;
71869;SDS011;59739;47.696;11.746;2023-10-19T17:21:36;6.85;;;4.70;;
71869;SDS011;59739;47.696;11.746;2023-10-19T17:24:06;6.65;;;4.95;;
71869;SDS011;59739;47.696;11.746;2023-10-19T17:26:34;6.03;;;4.35;;
71869;SDS011;59739;47.696;11.746;2023-10-19T17:29:00;8.18;;;4.47;;
71869;SDS011;59739;47.696;11.746;2023-10-19T17:31:26;5.22;;;3.95;;
71869;SDS011;59739;47.696;11.746;2023-10-19T17:33:52;4.82;;;4.05;;
71869;SDS011;59739;47.696;11.746;2023-10-19T17:36:20;5.53;;;4.30;;
71869;SDS011;59739;47.696;11.746;2023-10-19T17:38:46;6.00;;;4.05;;
71869;SDS011;59739;47.696;11.746;2023-10-19T17:41:12;7.97;;;4.60;;
71869;SDS011;59739;47.696;11.746;2023-10-19T17:43:38;6.65;;;4.07;;
71869;SDS011;59739;47.696;11.746;2023-10-19T17:46:04;6.88;;;5.03;;
71869;SDS011;59739;47.696;11.746;2023-10-19T17:48:31;8.93;;;5.00;;
71869;SDS011;59739;47.696;11.746;2023-10-19T17:50:57;8.80;;;5.20;;
71869;SDS011;59739;47.696;11.746;2023-10-19T17:53:34;6.18;;;5.25;;
71869;SDS011;59739;47.696;11.746;2023-10-19T17:56:00;6.28;;;5.32;;
71869;SDS011;59739;47.696;11.746;2023-10-19T17:58:26;6.97;;;5.50;;
71869;SDS011;59739;47.696;11.746;2023-10-19T18:00:52;7.43;;;5.15;;
71869;SDS011;59739;47.696;11.746;2023-10-19T18:03:18;7.75;;;5.22;;
71869;SDS011;59739;47.696;11.746;2023-10-19T18:05:45;6.85;;;4.72;;
71869;SDS011;59739;47.696;11.746;2023-10-19T18:08:13;6.82;;;4.70;;
71869;SDS011;59739;47.696;11.746;2023-10-19T18:10:40;7.35;;;4.65;;
71869;SDS011;59739;47.696;11.746;2023-10-19T18:13:06;8.27;;;6.57;;
71869;SDS011;59739;47.696;11.746;2023-10-19T18:15:33;8.45;;;5.97;;
71869;SDS011;59739;47.696;11.746;2023-10-19T18:18:02;8.65;;;6.88;;
71869;SDS011;59739;47.696;11.746;2023-10-19T18:20:30;9.07;;;6.68;;
71869;SDS011;59739;47.696;11.746;2023-10-19T18:22:56;11.60;;;7.55;;
71869;SDS011;59739;47.696;11.746;2023-10-19T18:25:22;9.30;;;6.70;;
71869;SDS011;59739;47.696;11.746;2023-10-19T18:27:53;10.35;;;6.68;;
71869;SDS011;59739;47.696;11.746;2023-10-19T18:30:20;9.90;;;6.38;;
71869;SDS011;59739;47.696;11.746;2023-10-19T18:32:46;9.70;;;7.20;;
71869;SDS011;59739;47.696;11.746;2023-10-19T18:35:13;7.65;;;6.47;;
71869;SDS011;59739;47.696;11.746;2023-10-19T18:37:40;8.82;;;6.97;;
71869;SDS011;59739;47.696;11.746;2023-10-19T18:40:06;11.25;;;8.20;;
71869;SDS011;59739;47.696;11.746;2023-10-19T18:42:33;10.05;;;7.32;;
71869;SDS011;59739;47.696;11.746;2023-10-19T18:45:01;10.88;;;7.70;;
71869;SDS011;59739;47.696;11.746;2023-10-19T18:47:31;10.52;;;7.47;;
71869;SDS011;59739;47.696;11.746;2023-10-19T18:50:01;11.40;;;7.65;;
71869;SDS011;59739;47.696;11.746;2023-10-19T18:52:33;10.05;;;7.68;;
71869;SDS011;59739;47.696;11.746;2023-10-19T18:55:00;12.27;;;9.27;;
71869;SDS011;59739;47.696;11.746;2023-10-19T18:57:26;10.82;;;9.57;;
71869;SDS011;59739;47.696;11.746;2023-10-19T18:59:52;10.80;;;9.13;;
71869;SDS011;59739;47.696;11.746;2023-10-19T19:02:18;12.95;;;9.43;;
71869;SDS011;59739;47.696;11.746;2023-10-19T19:04:44;12.10;;;8.77;;
71869;SDS011;59739;47.696;11.746;2023-10-19T19:07:10;14.38;;;10.30;;
71869;SDS011;59739;47.696;11.746;2023-10-19T19:09:36;14.35;;;9.73;;
71869;SDS011;59739;47.696;11.746;2023-10-19T19:12:02;10.55;;;9.45;;
71869;SDS011;59739;47.696;11.746;2023-10-19T19:14:28;11.23;;;8.85;;
71869;SDS011;59739;47.696;11.746;2023-10-19T19:16:55;10.77;;;8.15;;
71869;SDS011;59739;47.696;11.746;2023-10-19T19:19:24;11.43;;;8.82;;
71869;SDS011;59739;47.696;11.746;2023-10-19T19:21:50;9.75;;;7.90;;
71869;SDS011;59739;47.696;11.746;2023-10-19T19:24:16;11.48;;;8.35;;
71869;SDS011;59739;47.696;11.746;2023-10-19T19:26:42;42.53;;;29.10;;
71869;SDS011;59739;47.696;11.746;2023-10-19T19:29:08;62.50;;;43.42;;
71869;SDS011;59739;47.696;11.746;2023-10-19T19:31:34;42.92;;;33.03;;
71869;SDS011;59739;47.696;11.746;2023-10-19T19:34:00;28.00;;;19.05;;
71869;SDS011;59739;47.696;11.746;2023-10-19T19:36:27;17.75;;;15.25;;
71869;SDS011;59739;47.696;11.746;2023-10-19T19:38:54;13.10;;;10.57;;
71869;SDS011;59739;47.696;11.746;2023-10-19T19:41:20;13.05;;;9.93;;
71869;SDS011;59739;47.696;11.746;2023-10-19T19:43:46;11.43;;;9.15;;
71869;SDS011;59739;47.696;11.746;2023-10-19T19:46:12;16.30;;;9.20;;
71869;SDS011;59739;47.696;11.746;2023-10-19T19:48:39;11.07;;;8.93;;
71869;SDS011;59739;47.696;11.746;2023-10-19T19:51:06;15.13;;;10.32;;
71869;SDS011;59739;47.696;11.746;2023-10-19T19:53:34;16.30;;;11.68;;
71869;SDS011;59739;47.696;11.746;2023-10-19T19:56:00;15.25;;;11.35;;
71869;SDS011;59739;47.696;11.746;2023-10-19T19:58:28;15.02;;;10.23;;
71869;SDS011;59739;47.696;11.746;2023-10-19T20:00:54;15.30;;;11.05;;
71869;SDS011;59739;47.696;11.746;2023-10-19T20:03:20;14.07;;;11.15;;
71869;SDS011;59739;47.696;11.746;2023-10-19T20:05:46;14.55;;;10.43;;
71869;SDS011;59739;47.696;11.746;2023-10-19T20:08:12;13.80;;;10.43;;
71869;SDS011;59739;47.696;11.746;2023-10-19T20:10:39;11.10;;;9.80;;
71869;SDS011;59739;47.696;11.746;2023-10-19T20:13:10;14.40;;;9.80;;
71869;SDS011;59739;47.696;11.746;2023-10-19T20:15:41;16.63;;;9.98;;
71869;SDS011;59739;47.696;11.746;2023-10-19T20:18:08;16.27;;;10.95;;
71869;SDS011;59739;47.696;11.746;2023-10-19T20:20:35;15.15;;;11.57;;
71869;SDS011;59739;47.696;11.746;2023-10-19T20:23:02;17.48;;;11.48;;
71869;SDS011;59739;47.696;11.746;2023-10-19T20:25:29;16.40;;;11.65;;
71869;SDS011;59739;47.696;11.746;2023-10-19T20:27:56;12.98;;;10.27;;
71869;SDS011;59739;47.696;11.746;2023-10-19T20:30:25;12.68;;;9.77;;
71869;SDS011;59739;47.696;11.746;2023-10-19T20:32:51;12.70;;;9.38;;
71869;SDS011;59739;47.696;11.746;2023-10-19T20:35:18;13.75;;;8.98;;
71869;SDS011;59739;47.696;11.746;2023-10-19T20:37:45;13.90;;;10.00;;
71869;SDS011;59739;47.696;11.746;2023-10-19T20:40:12;10.35;;;8.40;;
71869;SDS011;59739;47.696;11.746;2023-10-19T20:42:50;8.20;;;7.15;;
71869;SDS011;59739;47.696;11.746;2023-10-19T20:45:37;10.07;;;6.50;;
71869;SDS011;59739;47.696;11.746;2023-10-19T20:48:04;11.02;;;7.18;;
71869;SDS011;59739;47.696;11.746;2023-10-19T20:50:32;9.35;;;6.53;;
71869;SDS011;59739;47.696;11.746;2023-10-19T20:52:58;9.13;;;6.03;;
71869;SDS011;59739;47.696;11.746;2023-10-19T20:55:24;8.43;;;6.03;;
71869;SDS011;59739;47.696;11.746;2023-10-19T20:57:51;6.70;;;5.50;;
71869;SDS011;59739;47.696;11.746;2023-10-19T21:02:53;8.43;;;6.03;;
71869;SDS011;59739;47.696;11.746;2023-10-19T21:05:20;7.43;;;5.85;;
71869;SDS011;59739;47.696;11.746;2023-10-19T21:07:47;8.32;;;6.07;;
71869;SDS011;59739;47.696;11.746;2023-10-19T21:10:14;7.72;;;5.97;;
71869;SDS011;59739;47.696;11.746;2023-10-19T21:12:43;9.18;;;5.97;;
71869;SDS011;59739;47.696;11.746;2023-10-19T21:15:10;7.57;;;6.10;;
71869;SDS011;59739;47.696;11.746;2023-10-19T21:17:41;9.25;;;6.50;;
71869;SDS011;59739;47.696;11.746;2023-10-19T21:20:14;10.38;;;6.35;;
71869;SDS011;59739;47.696;11.746;2023-10-19T21:22:41;8.82;;;5.55;;
71869;SDS011;59739;47.696;11.746;2023-10-19T21:25:12;7.07;;;5.35;;
71869;SDS011;59739;47.696;11.746;2023-10-19T21:27:40;11.07;;;5.93;;
71869;SDS011;59739;47.696;11.746;2023-10-19T21:30:08;9.27;;;6.45;;
71869;SDS011;59739;47.696;11.746;2023-10-19T21:32:38;8.15;;;6.55;;
71869;SDS011;59739;47.696;11.746;2023-10-19T21:35:06;8.32;;;6.05;;
71869;SDS011;59739;47.696;11.746;2023-10-19T21:37:34;6.75;;;5.90;;
71869;SDS011;59739;47.696;11.746;2023-10-19T21:40:00;7.15;;;5.80;;
71869;SDS011;59739;47.696;11.746;2023-10-19T21:42:29;10.02;;;6.97;;
71869;SDS011;59739;47.696;11.746;2023-10-19T21:44:55;8.20;;;6.15;;
71869;SDS011;59739;47.696;11.746;2023-10-19T21:47:21;9.85;;;5.78;;
71869;SDS011;59739;47.696;11.746;2023-10-19T21:49:48;8.57;;;6.22;;
71869;SDS011;59739;47.696;11.746;2023-10-19T21:52:15;8.07;;;5.95;;
71869;SDS011;59739;47.696;11.746;2023-10-19T21:54:51;11.13;;;6.40;;
71869;SDS011;59739;47.696;11.746;2023-10-19T21:57:19;6.88;;;5.72;;
71869;SDS011;59739;47.696;11.746;2023-10-19T21:59:45;9.40;;;5.55;;
71869;SDS011;59739;47.696;11.746;2023-10-19T22:02:12;7.78;;;5.70;;
71869;SDS011;59739;47.696;11.746;2023-10-19T22:04:41;10.00;;;5.80;;
71869;SDS011;59739;47.696;11.746;2023-10-19T22:07:07;6.82;;;5.50;;
71869;SDS011;59739;47.696;11.746;2023-10-19T22:09:33;8.35;;;5.55;;
71869;SDS011;59739;47.696;11.746;2023-10-19T22:11:59;9.13;;;5.40;;
71869;SDS011;59739;47.696;11.746;2023-10-19T22:14:26;7.97;;;5.47;;
71869;SDS011;59739;47.696;11.746;2023-10-19T22:16:54;6.50;;;5.53;;
71869;SDS011;59739;47.696;11.746;2023-10-19T22:19:21;7.78;;;5.50;;
71869;SDS011;59739;47.696;11.746;2023-10-19T22:21:52;7.27;;;5.30;;
71869;SDS011;59739;47.696;11.746;2023-10-19T22:24:20;9.05;;;5.65;;
71869;SDS011;59739;47.696;11.746;2023-10-19T22:26:46;6.78;;;5.53;;
71869;SDS011;59739;47.696;11.746;2023-10-19T22:29:15;8.07;;;5.38;;
71869;SDS011;59739;47.696;11.746;2023-10-19T22:31:44;9.68;;;6.00;;
71869;SDS011;59739;47.696;11.746;2023-10-19T22:34:11;8.20;;;5.40;;
71869;SDS011;59739;47.696;11.746;2023-10-19T22:36:41;8.30;;;5.25;;
71869;SDS011;59739;47.696;11.746;2023-10-19T22:39:07;6.82;;;5.80;;
71869;SDS011;59739;47.696;11.746;2023-10-19T22:41:35;8.45;;;5.25;;
71869;SDS011;59739;47.696;11.746;2023-10-19T22:44:02;6.30;;;5.30;;
71869;SDS011;59739;47.696;11.746;2023-10-19T22:46:29;8.13;;;5.35;;
71869;SDS011;59739;47.696;11.746;2023-10-19T22:49:00;5.60;;;4.97;;
71869;SDS011;59739;47.696;11.746;2023-10-19T22:51:26;7.28;;;5.45;;
71869;SDS011;59739;47.696;11.746;2023-10-19T22:53:52;8.27;;;5.55;;
71869;SDS011;59739;47.696;11.746;2023-10-19T22:56:18;5.70;;;4.80;;
71869;SDS011;59739;47.696;11.746;2023-10-19T22:58:44;7.00;;;5.10;;
71869;SDS011;59739;47.696;11.746;2023-10-19T23:01:10;7.22;;;4.68;;
71869;SDS011;59739;47.696;11.746;2023-10-19T23:03:38;6.00;;;4.80;;
71869;SDS011;59739;47.696;11.746;2023-10-19T23:06:04;5.82;;;4.50;;
71869;SDS011;59739;47.696;11.746;2023-10-19T23:08:29;6.00;;;4.90;;
71869;SDS011;59739;47.696;11.746;2023-10-19T23:10:58;6.18;;;4.85;;
71869;SDS011;59739;47.696;11.746;2023-10-19T23:13:24;6.60;;;5.00;;
71869;SDS011;59739;47.696;11.746;2023-10-19T23:15:50;6.13;;;5.00;;
71869;SDS011;59739;47.696;11.746;2023-10-19T23:18:20;7.32;;;5.18;;
71869;SDS011;59739;47.696;11.746;2023-10-19T23:20:46;7.15;;;5.00;;
71869;SDS011;59739;47.696;11.746;2023-10-19T23:23:17;5.32;;;4.82;;
71869;SDS011;59739;47.696;11.746;2023-10-19T23:25:44;6.72;;;4.68;;
71869;SDS011;59739;47.696;11.746;2023-10-19T23:28:18;5.53;;;4.47;;
71869;SDS011;59739;47.696;11.746;2023-10-19T23:30:48;5.97;;;4.63;;
71869;SDS011;59739;47.696;11.746;2023-10-19T23:33:15;6.22;;;4.60;;
71869;SDS011;59739;47.696;11.746;2023-10-19T23:35:41;6.18;;;4.70;;
71869;SDS011;59739;47.696;11.746;2023-10-19T23:38:07;7.38;;;4.50;;
71869;SDS011;59739;47.696;11.746;2023-10-19T23:40:33;6.95;;;4.75;;
71869;SDS011;59739;47.696;11.746;2023-10-19T23:43:00;5.57;;;4.85;;
71869;SDS011;59739;47.696;11.746;2023-10-19T23:45:26;6.85;;;4.65;;
71869;SDS011;59739;47.696;11.746;2023-10-19T23:47:52;6.18;;;4.78;;
71869;SDS011;59739;47.696;11.746;2023-10-19T23:50:19;7.03;;;4.85;;
71869;SDS011;59739;47.696;11.746;2023-10-19T23:52:45;4.68;;;3.83;;
71869;SDS011;59739;47.696;11.746;2023-10-19T23:55:11;8.15;;;4.95;;
71869;SDS011;59739;47.696;11.746;2023-10-19T23:57:38;5.25;;;4.28;;
